Hopkins, MI (49328)

4:04 AM EST on January 18, 2017 (GMT -0500)
KMIHOPKI2 | | Change Station
Active Advisory: Small Craft Advisory

Elev 732 ft 42.64 °N, 85.68 °W | Updated 1 second ago

Overcast
Overcast
35.7 °F
Feels Like 31 °F
N
5.0
Wind Variable Wind from WSW
Gusts 6.0 mph

Today
High -- | Low -- °F
--% Chance of Precip.
Yesterday
High -- | Low -- °F
Precip. -- in
Pressure 30.02 in
Visibility 10.0 miles
Clouds Overcast 600 ft
Windchill 31 °F
Dew Point 35 °F
Humidity 98%
Rainfall 0.00 in
Snow Depth Not available.
8:08 AM 5:38 PM
Waning Gibbous, 65% visible
METAR KBIV 180853Z AUTO 28007KT 10SM OVC006 02/01 A3000 RMK AO2 SLP165 T00220011 51009
Pressure 30.02 in
Visibility 10.0 miles
Clouds Overcast 600 ft
Windchill 31 °F
Dew Point 35 °F
Humidity 98%
Rainfall 0.00 in
Snow Depth Not available.
8:08 AM 5:38 PM
Waning Gibbous, 65% visible
METAR KBIV 180853Z AUTO 28007KT 10SM OVC006 02/01 A3000 RMK AO2 SLP165 T00220011 51009

Get Your Daily Forecast Email!

Thanks for signing up!

Be on the lookout for a verification email in your inbox.

You'll start receiving the daily forecast at 8 AM.

×

10-Day Weather Forecast

Almanac

Astronomy

Jan. 18, 2017 Rise Set
Actual Time
Civil Twilight
Nautical Twilight
Astronomical Twilight
Moon
Length of Visible Light
Length of Day
Tomorrow will be .
, % of the Moon is Illuminated

Today's Extremes

State Highs State Lows

Community

WunderPhotos

Upload Photos

1,962,540 photos uploaded!

WunderBlog® & News

Nearby

Air Quality

  Air Quality AQ Index Pollutant
Not available.

Snow Depth

Station Depth Elevation

Earthquake Activity

City Distance Mag. Time & Date
Minimum magnitude displayed is 2.5.

Coastal Water Temperatures

Place Temperature

Stations

Nearby Weather Stations

Station Location Temp. Windchill Dew Point Humidity Wind Precip. Elev Updated Type
                   

Watches & Warnings

Small Craft Advisory
Issued: 3:07 AM EST Jan. 18, 2017 – National Weather Service

... Small Craft Advisory in effect from 10 am this morning to 1 am
EST Thursday...

The National Weather Service in Grand Rapids has issued a Small
Craft Advisory... which is in effect from 10 am this morning to
1 am EST Thursday.

* Winds... southwest winds 10 to 20 knots increasing to 15 to 25
knots by late this morning. Winds will decrease to 10 to 20
knots after midnight.

* Waves... 1 to 3 feet building to 2 to 4 feet this afternoon
subsiding to 1 to 3 feet by Thursday morning.

Precautionary/preparedness actions...

A Small Craft Advisory means that winds or waves are expected to
produce hazardous conditions to small craft. Inexperienced
mariners... especially those operating smaller vessels should
avoid navigating in these conditions.